sensor_id;sensor_type;location;lat;lon;timestamp;P1;durP1;ratioP1;P2;durP2;ratioP2
48268;SDS011;34088;52.232;5.196;2023-03-22T00:01:59;10.40;;;2.17;;
48268;SDS011;34088;52.232;5.196;2023-03-22T00:04:25;11.68;;;2.67;;
48268;SDS011;34088;52.232;5.196;2023-03-22T00:06:51;12.18;;;2.60;;
48268;SDS011;34088;52.232;5.196;2023-03-22T00:09:17;12.27;;;2.20;;
48268;SDS011;34088;52.232;5.196;2023-03-22T00:11:43;16.27;;;2.92;;
48268;SDS011;34088;52.232;5.196;2023-03-22T00:14:08;12.18;;;2.90;;
48268;SDS011;34088;52.232;5.196;2023-03-22T00:16:34;13.88;;;2.97;;
48268;SDS011;34088;52.232;5.196;2023-03-22T00:33:04;15.23;;;3.13;;
48268;SDS011;34088;52.232;5.196;2023-03-22T00:35:30;15.80;;;3.38;;
48268;SDS011;34088;52.232;5.196;2023-03-22T00:37:56;11.90;;;2.92;;
48268;SDS011;34088;52.232;5.196;2023-03-22T00:40:29;16.45;;;2.92;;
48268;SDS011;34088;52.232;5.196;2023-03-22T00:42:56;17.73;;;3.33;;
48268;SDS011;34088;52.232;5.196;2023-03-22T00:45:21;14.70;;;2.90;;
48268;SDS011;34088;52.232;5.196;2023-03-22T00:47:47;12.23;;;2.53;;
48268;SDS011;34088;52.232;5.196;2023-03-22T00:50:12;11.75;;;2.60;;
48268;SDS011;34088;52.232;5.196;2023-03-22T00:52:38;12.43;;;2.92;;
48268;SDS011;34088;52.232;5.196;2023-03-22T00:57:29;16.17;;;3.00;;
48268;SDS011;34088;52.232;5.196;2023-03-22T00:59:54;12.85;;;3.20;;
48268;SDS011;34088;52.232;5.196;2023-03-22T01:04:53;11.77;;;2.97;;
48268;SDS011;34088;52.232;5.196;2023-03-22T01:07:19;11.80;;;2.78;;
48268;SDS011;34088;52.232;5.196;2023-03-22T01:09:46;17.30;;;3.33;;
48268;SDS011;34088;52.232;5.196;2023-03-22T01:12:12;16.27;;;3.58;;
48268;SDS011;34088;52.232;5.196;2023-03-22T01:14:38;11.52;;;2.90;;
48268;SDS011;34088;52.232;5.196;2023-03-22T01:17:05;13.02;;;3.03;;
48268;SDS011;34088;52.232;5.196;2023-03-22T01:19:31;13.20;;;3.50;;
48268;SDS011;34088;52.232;5.196;2023-03-22T01:21:57;13.48;;;3.42;;
48268;SDS011;34088;52.232;5.196;2023-03-22T01:26:48;18.23;;;2.90;;
48268;SDS011;34088;52.232;5.196;2023-03-22T01:29:14;12.60;;;3.40;;
48268;SDS011;34088;52.232;5.196;2023-03-22T01:31:40;13.07;;;3.42;;
48268;SDS011;34088;52.232;5.196;2023-03-22T01:34:05;13.20;;;3.03;;
48268;SDS011;34088;52.232;5.196;2023-03-22T01:36:31;10.65;;;3.00;;
48268;SDS011;34088;52.232;5.196;2023-03-22T01:38:56;12.65;;;3.45;;
48268;SDS011;34088;52.232;5.196;2023-03-22T01:41:23;11.60;;;2.63;;
48268;SDS011;34088;52.232;5.196;2023-03-22T01:46:33;11.90;;;2.88;;
48268;SDS011;34088;52.232;5.196;2023-03-22T01:48:58;14.13;;;2.97;;
48268;SDS011;34088;52.232;5.196;2023-03-22T01:51:25;13.65;;;2.67;;
48268;SDS011;34088;52.232;5.196;2023-03-22T01:53:53;11.18;;;2.50;;
48268;SDS011;34088;52.232;5.196;2023-03-22T01:56:25;14.10;;;2.92;;
48268;SDS011;34088;52.232;5.196;2023-03-22T01:58:53;12.10;;;2.72;;
48268;SDS011;34088;52.232;5.196;2023-03-22T02:01:19;8.73;;;2.83;;
48268;SDS011;34088;52.232;5.196;2023-03-22T02:06:23;11.88;;;2.90;;
48268;SDS011;34088;52.232;5.196;2023-03-22T02:08:50;15.50;;;3.58;;
48268;SDS011;34088;52.232;5.196;2023-03-22T02:11:18;10.80;;;3.40;;
48268;SDS011;34088;52.232;5.196;2023-03-22T02:35:37;12.73;;;4.20;;
48268;SDS011;34088;52.232;5.196;2023-03-22T02:46:06;10.90;;;4.50;;
48268;SDS011;34088;52.232;5.196;2023-03-22T02:49:36;12.60;;;4.68;;
48268;SDS011;34088;52.232;5.196;2023-03-22T02:57:47;18.33;;;6.28;;
48268;SDS011;34088;52.232;5.196;2023-03-22T03:00:17;15.30;;;6.50;;
48268;SDS011;34088;52.232;5.196;2023-03-22T03:02:45;15.77;;;7.35;;
48268;SDS011;34088;52.232;5.196;2023-03-22T03:05:17;16.63;;;6.85;;
48268;SDS011;34088;52.232;5.196;2023-03-22T03:07:45;13.00;;;7.40;;
48268;SDS011;34088;52.232;5.196;2023-03-22T03:10:14;14.63;;;7.50;;
48268;SDS011;34088;52.232;5.196;2023-03-22T03:12:40;16.02;;;8.00;;
48268;SDS011;34088;52.232;5.196;2023-03-22T03:15:11;18.70;;;8.57;;
48268;SDS011;34088;52.232;5.196;2023-03-22T03:28:33;21.73;;;10.50;;
48268;SDS011;34088;52.232;5.196;2023-03-22T03:33:40;25.02;;;11.68;;
48268;SDS011;34088;52.232;5.196;2023-03-22T03:36:13;20.58;;;11.98;;
48268;SDS011;34088;52.232;5.196;2023-03-22T03:38:41;22.95;;;11.65;;
48268;SDS011;34088;52.232;5.196;2023-03-22T03:41:15;21.48;;;12.38;;
48268;SDS011;34088;52.232;5.196;2023-03-22T03:43:42;21.60;;;12.15;;
48268;SDS011;34088;52.232;5.196;2023-03-22T03:46:10;25.08;;;12.70;;
48268;SDS011;34088;52.232;5.196;2023-03-22T03:48:36;23.67;;;12.30;;
48268;SDS011;34088;52.232;5.196;2023-03-22T03:51:03;19.55;;;11.68;;
48268;SDS011;34088;52.232;5.196;2023-03-22T03:53:29;23.83;;;12.23;;
48268;SDS011;34088;52.232;5.196;2023-03-22T03:55:54;26.02;;;12.40;;
48268;SDS011;34088;52.232;5.196;2023-03-22T03:58:20;24.80;;;12.13;;
48268;SDS011;34088;52.232;5.196;2023-03-22T04:00:49;21.83;;;12.45;;
48268;SDS011;34088;52.232;5.196;2023-03-22T04:03:15;20.92;;;12.13;;
48268;SDS011;34088;52.232;5.196;2023-03-22T04:05:40;27.80;;;13.55;;
48268;SDS011;34088;52.232;5.196;2023-03-22T04:08:06;21.80;;;13.07;;
48268;SDS011;34088;52.232;5.196;2023-03-22T04:10:32;19.98;;;11.45;;
48268;SDS011;34088;52.232;5.196;2023-03-22T04:12:57;22.25;;;12.70;;
48268;SDS011;34088;52.232;5.196;2023-03-22T04:15:23;22.67;;;13.15;;
48268;SDS011;34088;52.232;5.196;2023-03-22T04:17:49;21.52;;;12.88;;
48268;SDS011;34088;52.232;5.196;2023-03-22T04:20:15;26.80;;;12.57;;
48268;SDS011;34088;52.232;5.196;2023-03-22T04:22:41;23.13;;;12.93;;
48268;SDS011;34088;52.232;5.196;2023-03-22T04:25:07;21.73;;;12.73;;
48268;SDS011;34088;52.232;5.196;2023-03-22T04:27:38;22.13;;;13.27;;
48268;SDS011;34088;52.232;5.196;2023-03-22T04:30:06;26.00;;;12.63;;
48268;SDS011;34088;52.232;5.196;2023-03-22T04:32:36;24.35;;;12.52;;
48268;SDS011;34088;52.232;5.196;2023-03-22T04:35:03;22.55;;;12.52;;
48268;SDS011;34088;52.232;5.196;2023-03-22T04:37:29;20.95;;;12.43;;
48268;SDS011;34088;52.232;5.196;2023-03-22T04:39:57;24.77;;;13.70;;
48268;SDS011;34088;52.232;5.196;2023-03-22T04:42:23;23.42;;;13.35;;
48268;SDS011;34088;52.232;5.196;2023-03-22T04:44:50;24.88;;;13.40;;
48268;SDS011;34088;52.232;5.196;2023-03-22T04:47:15;28.27;;;13.13;;
48268;SDS011;34088;52.232;5.196;2023-03-22T04:49:42;22.40;;;11.60;;
48268;SDS011;34088;52.232;5.196;2023-03-22T04:52:08;22.83;;;12.00;;
48268;SDS011;34088;52.232;5.196;2023-03-22T04:54:34;22.38;;;11.65;;
48268;SDS011;34088;52.232;5.196;2023-03-22T04:57:00;20.40;;;12.13;;
48268;SDS011;34088;52.232;5.196;2023-03-22T04:59:26;19.65;;;11.95;;
48268;SDS011;34088;52.232;5.196;2023-03-22T05:01:51;22.45;;;12.20;;
48268;SDS011;34088;52.232;5.196;2023-03-22T05:04:17;21.42;;;11.98;;
48268;SDS011;34088;52.232;5.196;2023-03-22T05:06:43;19.75;;;11.32;;
48268;SDS011;34088;52.232;5.196;2023-03-22T05:09:09;24.17;;;13.13;;
48268;SDS011;34088;52.232;5.196;2023-03-22T05:11:35;19.02;;;11.43;;
48268;SDS011;34088;52.232;5.196;2023-03-22T05:14:01;20.15;;;11.60;;
48268;SDS011;34088;52.232;5.196;2023-03-22T05:16:27;20.58;;;11.23;;
48268;SDS011;34088;52.232;5.196;2023-03-22T05:18:53;18.52;;;10.65;;
48268;SDS011;34088;52.232;5.196;2023-03-22T05:21:20;19.40;;;10.95;;
48268;SDS011;34088;52.232;5.196;2023-03-22T05:23:52;22.05;;;11.07;;
48268;SDS011;34088;52.232;5.196;2023-03-22T05:26:23;21.20;;;10.80;;
48268;SDS011;34088;52.232;5.196;2023-03-22T05:28:50;16.35;;;10.18;;
48268;SDS011;34088;52.232;5.196;2023-03-22T05:31:20;19.98;;;10.20;;
48268;SDS011;34088;52.232;5.196;2023-03-22T05:33:47;19.63;;;9.75;;
48268;SDS011;34088;52.232;5.196;2023-03-22T05:36:16;17.38;;;9.80;;
48268;SDS011;34088;52.232;5.196;2023-03-22T05:38:42;22.35;;;10.85;;
48268;SDS011;34088;52.232;5.196;2023-03-22T05:41:08;20.40;;;10.13;;
48268;SDS011;34088;52.232;5.196;2023-03-22T05:43:35;18.83;;;10.00;;
48268;SDS011;34088;52.232;5.196;2023-03-22T05:46:03;18.55;;;9.57;;
48268;SDS011;34088;52.232;5.196;2023-03-22T05:48:29;20.60;;;9.77;;
48268;SDS011;34088;52.232;5.196;2023-03-22T05:50:55;19.75;;;9.52;;
48268;SDS011;34088;52.232;5.196;2023-03-22T05:53:20;18.30;;;9.27;;
48268;SDS011;34088;52.232;5.196;2023-03-22T05:55:46;21.63;;;9.85;;
48268;SDS011;34088;52.232;5.196;2023-03-22T05:58:11;20.35;;;8.77;;
48268;SDS011;34088;52.232;5.196;2023-03-22T06:00:42;18.25;;;8.60;;
48268;SDS011;34088;52.232;5.196;2023-03-22T06:03:08;18.65;;;8.57;;
48268;SDS011;34088;52.232;5.196;2023-03-22T06:05:34;19.52;;;8.82;;
48268;SDS011;34088;52.232;5.196;2023-03-22T06:08:01;15.95;;;8.48;;
48268;SDS011;34088;52.232;5.196;2023-03-22T06:10:27;18.70;;;9.27;;
48268;SDS011;34088;52.232;5.196;2023-03-22T06:12:53;14.52;;;7.90;;
48268;SDS011;34088;52.232;5.196;2023-03-22T06:15:18;16.38;;;8.02;;
48268;SDS011;34088;52.232;5.196;2023-03-22T06:17:44;18.13;;;7.40;;
48268;SDS011;34088;52.232;5.196;2023-03-22T06:20:11;14.90;;;7.78;;
48268;SDS011;34088;52.232;5.196;2023-03-22T06:22:38;15.80;;;6.95;;
48268;SDS011;34088;52.232;5.196;2023-03-22T06:25:04;17.23;;;7.72;;
48268;SDS011;34088;52.232;5.196;2023-03-22T06:27:31;14.73;;;6.57;;
48268;SDS011;34088;52.232;5.196;2023-03-22T06:29:57;18.55;;;6.72;;
48268;SDS011;34088;52.232;5.196;2023-03-22T06:32:23;17.60;;;6.60;;
48268;SDS011;34088;52.232;5.196;2023-03-22T06:34:50;14.63;;;6.88;;
48268;SDS011;34088;52.232;5.196;2023-03-22T06:37:16;19.73;;;6.90;;
48268;SDS011;34088;52.232;5.196;2023-03-22T06:39:42;14.82;;;6.05;;
48268;SDS011;34088;52.232;5.196;2023-03-22T06:42:08;13.25;;;5.95;;
48268;SDS011;34088;52.232;5.196;2023-03-22T06:44:34;17.42;;;5.72;;
48268;SDS011;34088;52.232;5.196;2023-03-22T06:47:00;16.52;;;6.03;;
48268;SDS011;34088;52.232;5.196;2023-03-22T06:49:25;13.70;;;5.93;;
48268;SDS011;34088;52.232;5.196;2023-03-22T06:51:51;13.55;;;5.57;;
48268;SDS011;34088;52.232;5.196;2023-03-22T06:54:17;15.60;;;5.20;;
48268;SDS011;34088;52.232;5.196;2023-03-22T06:56:43;10.70;;;4.88;;
48268;SDS011;34088;52.232;5.196;2023-03-22T06:59:08;13.10;;;5.13;;
48268;SDS011;34088;52.232;5.196;2023-03-22T07:01:34;13.57;;;4.88;;
48268;SDS011;34088;52.232;5.196;2023-03-22T07:04:00;12.00;;;4.47;;
48268;SDS011;34088;52.232;5.196;2023-03-22T07:06:27;11.73;;;4.03;;
48268;SDS011;34088;52.232;5.196;2023-03-22T07:08:52;14.95;;;4.78;;
48268;SDS011;34088;52.232;5.196;2023-03-22T07:11:18;11.90;;;4.38;;
48268;SDS011;34088;52.232;5.196;2023-03-22T07:13:44;16.20;;;4.85;;
48268;SDS011;34088;52.232;5.196;2023-03-22T07:16:09;13.68;;;4.18;;
48268;SDS011;34088;52.232;5.196;2023-03-22T07:18:35;11.95;;;4.07;;
48268;SDS011;34088;52.232;5.196;2023-03-22T07:21:01;17.27;;;4.43;;
48268;SDS011;34088;52.232;5.196;2023-03-22T07:23:27;13.05;;;3.80;;
48268;SDS011;34088;52.232;5.196;2023-03-22T07:25:52;12.40;;;3.90;;
48268;SDS011;34088;52.232;5.196;2023-03-22T07:28:20;14.27;;;4.05;;
48268;SDS011;34088;52.232;5.196;2023-03-22T07:30:46;14.88;;;3.70;;
48268;SDS011;34088;52.232;5.196;2023-03-22T07:33:11;11.32;;;3.38;;
48268;SDS011;34088;52.232;5.196;2023-03-22T07:35:38;13.85;;;3.55;;
48268;SDS011;34088;52.232;5.196;2023-03-22T07:38:04;15.73;;;3.83;;
48268;SDS011;34088;52.232;5.196;2023-03-22T07:40:30;16.05;;;3.33;;
48268;SDS011;34088;52.232;5.196;2023-03-22T07:42:56;10.63;;;3.55;;
48268;SDS011;34088;52.232;5.196;2023-03-22T07:45:23;14.02;;;3.53;;
48268;SDS011;34088;52.232;5.196;2023-03-22T07:47:49;12.60;;;2.80;;
48268;SDS011;34088;52.232;5.196;2023-03-22T07:50:15;15.13;;;3.22;;
48268;SDS011;34088;52.232;5.196;2023-03-22T07:52:42;15.18;;;3.40;;
48268;SDS011;34088;52.232;5.196;2023-03-22T07:55:09;12.40;;;3.17;;
48268;SDS011;34088;52.232;5.196;2023-03-22T07:57:35;13.70;;;3.35;;
48268;SDS011;34088;52.232;5.196;2023-03-22T08:00:01;10.90;;;3.33;;
48268;SDS011;34088;52.232;5.196;2023-03-22T08:02:28;12.93;;;3.10;;
48268;SDS011;34088;52.232;5.196;2023-03-22T08:04:54;11.45;;;3.15;;
48268;SDS011;34088;52.232;5.196;2023-03-22T08:07:20;12.93;;;3.03;;
48268;SDS011;34088;52.232;5.196;2023-03-22T08:09:46;15.27;;;3.40;;
48268;SDS011;34088;52.232;5.196;2023-03-22T08:12:12;14.20;;;3.30;;
48268;SDS011;34088;52.232;5.196;2023-03-22T08:14:37;9.27;;;3.00;;
48268;SDS011;34088;52.232;5.196;2023-03-22T08:17:03;12.10;;;3.33;;
48268;SDS011;34088;52.232;5.196;2023-03-22T08:19:30;13.55;;;2.80;;
48268;SDS011;34088;52.232;5.196;2023-03-22T08:21:56;12.43;;;2.85;;
48268;SDS011;34088;52.232;5.196;2023-03-22T08:24:21;11.20;;;3.13;;
48268;SDS011;34088;52.232;5.196;2023-03-22T08:26:47;11.27;;;3.03;;
48268;SDS011;34088;52.232;5.196;2023-03-22T08:29:15;13.50;;;3.33;;
48268;SDS011;34088;52.232;5.196;2023-03-22T08:31:41;14.18;;;3.35;;
48268;SDS011;34088;52.232;5.196;2023-03-22T08:34:06;12.00;;;3.53;;
48268;SDS011;34088;52.232;5.196;2023-03-22T08:36:32;12.43;;;3.55;;
48268;SDS011;34088;52.232;5.196;2023-03-22T08:38:58;14.05;;;3.67;;
48268;SDS011;34088;52.232;5.196;2023-03-22T08:41:23;13.85;;;3.20;;
48268;SDS011;34088;52.232;5.196;2023-03-22T08:43:49;16.30;;;3.33;;
48268;SDS011;34088;52.232;5.196;2023-03-22T08:46:15;11.88;;;3.45;;
48268;SDS011;34088;52.232;5.196;2023-03-22T08:48:40;11.32;;;3.50;;
48268;SDS011;34088;52.232;5.196;2023-03-22T08:51:06;12.30;;;3.45;;
48268;SDS011;34088;52.232;5.196;2023-03-22T08:53:32;15.88;;;3.60;;
48268;SDS011;34088;52.232;5.196;2023-03-22T08:55:57;12.13;;;3.38;;
48268;SDS011;34088;52.232;5.196;2023-03-22T08:58:25;12.68;;;3.70;;
48268;SDS011;34088;52.232;5.196;2023-03-22T09:00:51;15.55;;;3.67;;
48268;SDS011;34088;52.232;5.196;2023-03-22T09:03:16;12.82;;;4.68;;
48268;SDS011;34088;52.232;5.196;2023-03-22T09:05:42;11.90;;;3.38;;
48268;SDS011;34088;52.232;5.196;2023-03-22T09:08:08;13.38;;;3.67;;
48268;SDS011;34088;52.232;5.196;2023-03-22T09:10:33;16.05;;;3.97;;
48268;SDS011;34088;52.232;5.196;2023-03-22T09:13:01;14.32;;;4.28;;
48268;SDS011;34088;52.232;5.196;2023-03-22T09:15:27;11.95;;;3.83;;
48268;SDS011;34088;52.232;5.196;2023-03-22T09:17:52;16.10;;;4.00;;
48268;SDS011;34088;52.232;5.196;2023-03-22T09:20:18;16.08;;;3.90;;
48268;SDS011;34088;52.232;5.196;2023-03-22T09:22:49;18.80;;;3.63;;
48268;SDS011;34088;52.232;5.196;2023-03-22T09:25:15;11.55;;;3.92;;
48268;SDS011;34088;52.232;5.196;2023-03-22T09:27:41;11.70;;;3.72;;
48268;SDS011;34088;52.232;5.196;2023-03-22T09:30:06;11.88;;;3.90;;
48268;SDS011;34088;52.232;5.196;2023-03-22T09:32:32;9.73;;;3.40;;
48268;SDS011;34088;52.232;5.196;2023-03-22T09:34:58;11.10;;;3.80;;
48268;SDS011;34088;52.232;5.196;2023-03-22T09:37:24;13.02;;;3.45;;
48268;SDS011;34088;52.232;5.196;2023-03-22T09:39:54;16.55;;;3.60;;
48268;SDS011;34088;52.232;5.196;2023-03-22T09:44:59;13.95;;;3.97;;
48268;SDS011;34088;52.232;5.196;2023-03-22T09:47:33;15.15;;;4.13;;
48268;SDS011;34088;52.232;5.196;2023-03-22T09:50:05;12.15;;;3.67;;
48268;SDS011;34088;52.232;5.196;2023-03-22T09:52:50;13.75;;;3.78;;
48268;SDS011;34088;52.232;5.196;2023-03-22T09:55:18;15.85;;;4.25;;
48268;SDS011;34088;52.232;5.196;2023-03-22T10:00:37;16.13;;;4.57;;
48268;SDS011;34088;52.232;5.196;2023-03-22T10:03:13;15.07;;;4.45;;
48268;SDS011;34088;52.232;5.196;2023-03-22T10:05:56;10.93;;;4.40;;
48268;SDS011;34088;52.232;5.196;2023-03-22T10:08:29;14.00;;;4.68;;
48268;SDS011;34088;52.232;5.196;2023-03-22T10:10:58;13.80;;;4.78;;
48268;SDS011;34088;52.232;5.196;2023-03-22T10:13:34;10.75;;;3.80;;
48268;SDS011;34088;52.232;5.196;2023-03-22T10:16:05;15.88;;;4.75;;
48268;SDS011;34088;52.232;5.196;2023-03-22T10:18:35;13.13;;;3.55;;
48268;SDS011;34088;52.232;5.196;2023-03-22T10:21:12;11.75;;;4.20;;
48268;SDS011;34088;52.232;5.196;2023-03-22T10:26:22;13.75;;;4.25;;
48268;SDS011;34088;52.232;5.196;2023-03-22T10:31:41;12.38;;;4.07;;
48268;SDS011;34088;52.232;5.196;2023-03-22T10:34:16;11.98;;;4.00;;
48268;SDS011;34088;52.232;5.196;2023-03-22T10:36:45;13.07;;;3.90;;
48268;SDS011;34088;52.232;5.196;2023-03-22T10:39:15;14.02;;;4.10;;
48268;SDS011;34088;52.232;5.196;2023-03-22T10:42:00;15.57;;;4.43;;
48268;SDS011;34088;52.232;5.196;2023-03-22T10:44:28;11.48;;;3.85;;
48268;SDS011;34088;52.232;5.196;2023-03-22T10:46:55;11.45;;;3.80;;
48268;SDS011;34088;52.232;5.196;2023-03-22T10:49:32;15.85;;;4.25;;
48268;SDS011;34088;52.232;5.196;2023-03-22T10:52:01;14.63;;;3.85;;
48268;SDS011;34088;52.232;5.196;2023-03-22T10:54:29;14.13;;;4.00;;
48268;SDS011;34088;52.232;5.196;2023-03-22T10:56:55;12.27;;;3.60;;
48268;SDS011;34088;52.232;5.196;2023-03-22T11:02:13;12.27;;;3.97;;
48268;SDS011;34088;52.232;5.196;2023-03-22T11:04:50;10.75;;;3.60;;
48268;SDS011;34088;52.232;5.196;2023-03-22T11:07:41;12.43;;;3.67;;
48268;SDS011;34088;52.232;5.196;2023-03-22T11:12:34;13.32;;;3.92;;
48268;SDS011;34088;52.232;5.196;2023-03-22T11:15:03;9.75;;;3.83;;
48268;SDS011;34088;52.232;5.196;2023-03-22T11:17:30;7.53;;;3.35;;
48268;SDS011;34088;52.232;5.196;2023-03-22T11:19:57;12.35;;;4.35;;
48268;SDS011;34088;52.232;5.196;2023-03-22T11:22:29;12.05;;;3.58;;
48268;SDS011;34088;52.232;5.196;2023-03-22T11:24:58;13.80;;;4.50;;
48268;SDS011;34088;52.232;5.196;2023-03-22T11:27:25;10.90;;;4.18;;
48268;SDS011;34088;52.232;5.196;2023-03-22T11:29:53;9.88;;;4.05;;
48268;SDS011;34088;52.232;5.196;2023-03-22T11:32:34;9.38;;;3.78;;
48268;SDS011;34088;52.232;5.196;2023-03-22T11:35:03;14.38;;;4.18;;
48268;SDS011;34088;52.232;5.196;2023-03-22T11:37:38;10.70;;;3.40;;
48268;SDS011;34088;52.232;5.196;2023-03-22T11:40:09;11.55;;;3.58;;
48268;SDS011;34088;52.232;5.196;2023-03-22T11:42:41;12.45;;;4.13;;
48268;SDS011;34088;52.232;5.196;2023-03-22T11:45:09;8.40;;;3.75;;
48268;SDS011;34088;52.232;5.196;2023-03-22T11:47:39;8.90;;;3.33;;
48268;SDS011;34088;52.232;5.196;2023-03-22T11:50:05;10.25;;;4.05;;
48268;SDS011;34088;52.232;5.196;2023-03-22T11:52:34;16.15;;;4.22;;
48268;SDS011;34088;52.232;5.196;2023-03-22T11:55:00;10.20;;;3.22;;
48268;SDS011;34088;52.232;5.196;2023-03-22T11:57:27;13.15;;;3.83;;
48268;SDS011;34088;52.232;5.196;2023-03-22T12:00:01;11.18;;;3.80;;
48268;SDS011;34088;52.232;5.196;2023-03-22T12:02:45;10.88;;;3.55;;
48268;SDS011;34088;52.232;5.196;2023-03-22T12:05:33;9.68;;;3.92;;
48268;SDS011;34088;52.232;5.196;2023-03-22T12:08:05;11.05;;;3.92;;
48268;SDS011;34088;52.232;5.196;2023-03-22T12:10:37;8.25;;;3.50;;
48268;SDS011;34088;52.232;5.196;2023-03-22T12:13:22;10.88;;;3.65;;
48268;SDS011;34088;52.232;5.196;2023-03-22T12:15:57;9.40;;;3.83;;
48268;SDS011;34088;52.232;5.196;2023-03-22T12:18:29;8.32;;;3.70;;
48268;SDS011;34088;52.232;5.196;2023-03-22T12:21:01;10.23;;;3.60;;
48268;SDS011;34088;52.232;5.196;2023-03-22T12:23:28;9.55;;;3.85;;
48268;SDS011;34088;52.232;5.196;2023-03-22T12:25:56;9.95;;;3.90;;
48268;SDS011;34088;52.232;5.196;2023-03-22T12:28:30;10.05;;;4.07;;
48268;SDS011;34088;52.232;5.196;2023-03-22T12:31:20;12.50;;;3.78;;
48268;SDS011;34088;52.232;5.196;2023-03-22T12:33:49;8.77;;;3.92;;
48268;SDS011;34088;52.232;5.196;2023-03-22T12:36:18;9.45;;;3.90;;
48268;SDS011;34088;52.232;5.196;2023-03-22T12:38:56;11.43;;;4.32;;
48268;SDS011;34088;52.232;5.196;2023-03-22T12:41:44;9.70;;;3.80;;
48268;SDS011;34088;52.232;5.196;2023-03-22T12:46:56;8.65;;;3.85;;
48268;SDS011;34088;52.232;5.196;2023-03-22T12:49:28;9.75;;;3.85;;
48268;SDS011;34088;52.232;5.196;2023-03-22T12:51:59;7.07;;;3.75;;
48268;SDS011;34088;52.232;5.196;2023-03-22T12:54:34;9.68;;;4.18;;
48268;SDS011;34088;52.232;5.196;2023-03-22T12:57:01;11.02;;;4.20;;
48268;SDS011;34088;52.232;5.196;2023-03-22T12:59:27;8.02;;;3.70;;
48268;SDS011;34088;52.232;5.196;2023-03-22T13:01:58;8.35;;;4.03;;
48268;SDS011;34088;52.232;5.196;2023-03-22T13:19:51;8.23;;;4.18;;
48268;SDS011;34088;52.232;5.196;2023-03-22T13:30:21;10.57;;;4.00;;
48268;SDS011;34088;52.232;5.196;2023-03-22T13:32:52;8.02;;;4.03;;
48268;SDS011;34088;52.232;5.196;2023-03-22T13:35:33;10.27;;;4.40;;
48268;SDS011;34088;52.232;5.196;2023-03-22T13:41:03;7.78;;;4.03;;
48268;SDS011;34088;52.232;5.196;2023-03-22T13:43:50;9.65;;;4.30;;
48268;SDS011;34088;52.232;5.196;2023-03-22T13:59:22;10.27;;;4.47;;
48268;SDS011;34088;52.232;5.196;2023-03-22T14:07:24;9.52;;;4.45;;
48268;SDS011;34088;52.232;5.196;2023-03-22T14:10:04;8.60;;;4.85;;
48268;SDS011;34088;52.232;5.196;2023-03-22T14:15:13;8.63;;;4.70;;
48268;SDS011;34088;52.232;5.196;2023-03-22T14:20:13;10.77;;;5.43;;
48268;SDS011;34088;52.232;5.196;2023-03-22T14:22:46;7.43;;;5.07;;
48268;SDS011;34088;52.232;5.196;2023-03-22T14:25:16;10.43;;;5.53;;
48268;SDS011;34088;52.232;5.196;2023-03-22T14:27:43;10.25;;;4.93;;
48268;SDS011;34088;52.232;5.196;2023-03-22T14:33:06;8.05;;;5.10;;
48268;SDS011;34088;52.232;5.196;2023-03-22T14:38:04;9.77;;;4.88;;
48268;SDS011;34088;52.232;5.196;2023-03-22T14:40:33;10.68;;;5.18;;
48268;SDS011;34088;52.232;5.196;2023-03-22T14:43:13;7.88;;;4.20;;
48268;SDS011;34088;52.232;5.196;2023-03-22T14:45:41;11.40;;;4.35;;
48268;SDS011;34088;52.232;5.196;2023-03-22T14:48:13;9.80;;;4.68;;
48268;SDS011;34088;52.232;5.196;2023-03-22T14:50:46;8.73;;;4.53;;
48268;SDS011;34088;52.232;5.196;2023-03-22T14:53:13;7.65;;;4.10;;
48268;SDS011;34088;52.232;5.196;2023-03-22T14:55:39;11.07;;;3.92;;
48268;SDS011;34088;52.232;5.196;2023-03-22T14:58:05;9.35;;;4.10;;
48268;SDS011;34088;52.232;5.196;2023-03-22T15:00:33;8.23;;;4.40;;
48268;SDS011;34088;52.232;5.196;2023-03-22T15:03:03;8.55;;;4.28;;
48268;SDS011;34088;52.232;5.196;2023-03-22T15:05:40;6.93;;;4.60;;
48268;SDS011;34088;52.232;5.196;2023-03-22T15:10:41;8.95;;;4.55;;
48268;SDS011;34088;52.232;5.196;2023-03-22T15:13:07;7.75;;;4.18;;
48268;SDS011;34088;52.232;5.196;2023-03-22T15:15:35;10.07;;;4.60;;
48268;SDS011;34088;52.232;5.196;2023-03-22T15:18:02;9.32;;;4.43;;
48268;SDS011;34088;52.232;5.196;2023-03-22T15:20:33;9.85;;;4.40;;
48268;SDS011;34088;52.232;5.196;2023-03-22T15:23:11;8.55;;;4.72;;
48268;SDS011;34088;52.232;5.196;2023-03-22T15:25:39;8.32;;;5.05;;
48268;SDS011;34088;52.232;5.196;2023-03-22T15:28:11;9.52;;;6.15;;
48268;SDS011;34088;52.232;5.196;2023-03-22T15:30:44;9.90;;;6.47;;
48268;SDS011;34088;52.232;5.196;2023-03-22T15:35:46;10.93;;;7.50;;
48268;SDS011;34088;52.232;5.196;2023-03-22T15:38:13;13.05;;;7.50;;
48268;SDS011;34088;52.232;5.196;2023-03-22T15:40:40;13.18;;;8.30;;
48268;SDS011;34088;52.232;5.196;2023-03-22T15:48:40;14.40;;;9.50;;
48268;SDS011;34088;52.232;5.196;2023-03-22T15:51:06;13.82;;;10.52;;
48268;SDS011;34088;52.232;5.196;2023-03-22T15:53:33;12.23;;;9.57;;
48268;SDS011;34088;52.232;5.196;2023-03-22T15:56:00;14.60;;;10.70;;
48268;SDS011;34088;52.232;5.196;2023-03-22T15:58:26;13.35;;;10.38;;
48268;SDS011;34088;52.232;5.196;2023-03-22T16:03:54;16.73;;;11.10;;
48268;SDS011;34088;52.232;5.196;2023-03-22T16:06:24;18.25;;;11.20;;
48268;SDS011;34088;52.232;5.196;2023-03-22T16:08:51;16.30;;;11.65;;
48268;SDS011;34088;52.232;5.196;2023-03-22T16:11:18;17.77;;;12.68;;
48268;SDS011;34088;52.232;5.196;2023-03-22T16:13:47;17.02;;;11.98;;
48268;SDS011;34088;52.232;5.196;2023-03-22T16:16:13;18.50;;;12.88;;
48268;SDS011;34088;52.232;5.196;2023-03-22T16:18:40;17.92;;;13.75;;
48268;SDS011;34088;52.232;5.196;2023-03-22T16:21:08;21.00;;;14.82;;
48268;SDS011;34088;52.232;5.196;2023-03-22T16:23:37;18.20;;;13.05;;
48268;SDS011;34088;52.232;5.196;2023-03-22T16:26:03;16.52;;;13.30;;
48268;SDS011;34088;52.232;5.196;2023-03-22T16:28:29;16.45;;;12.10;;
48268;SDS011;34088;52.232;5.196;2023-03-22T16:30:54;15.27;;;11.57;;
48268;SDS011;34088;52.232;5.196;2023-03-22T16:33:20;13.57;;;9.93;;
48268;SDS011;34088;52.232;5.196;2023-03-22T16:35:46;16.70;;;11.38;;
48268;SDS011;34088;52.232;5.196;2023-03-22T16:38:12;13.68;;;10.15;;
48268;SDS011;34088;52.232;5.196;2023-03-22T16:40:41;11.70;;;9.98;;
48268;SDS011;34088;52.232;5.196;2023-03-22T16:43:16;12.48;;;9.15;;
48268;SDS011;34088;52.232;5.196;2023-03-22T16:45:42;11.35;;;8.50;;
48268;SDS011;34088;52.232;5.196;2023-03-22T16:48:08;13.68;;;8.40;;
48268;SDS011;34088;52.232;5.196;2023-03-22T16:50:34;11.00;;;8.10;;
48268;SDS011;34088;52.232;5.196;2023-03-22T16:53:02;8.20;;;7.32;;
48268;SDS011;34088;52.232;5.196;2023-03-22T16:55:31;10.45;;;7.47;;
48268;SDS011;34088;52.232;5.196;2023-03-22T16:58:00;9.88;;;7.65;;
48268;SDS011;34088;52.232;5.196;2023-03-22T17:00:26;8.27;;;6.93;;
48268;SDS011;34088;52.232;5.196;2023-03-22T17:03:01;9.82;;;7.47;;
48268;SDS011;34088;52.232;5.196;2023-03-22T17:05:29;10.43;;;7.40;;
48268;SDS011;34088;52.232;5.196;2023-03-22T17:07:57;9.13;;;7.65;;
48268;SDS011;34088;52.232;5.196;2023-03-22T17:10:24;9.73;;;7.43;;
48268;SDS011;34088;52.232;5.196;2023-03-22T17:12:51;9.82;;;6.80;;
48268;SDS011;34088;52.232;5.196;2023-03-22T17:17:48;8.23;;;6.97;;
48268;SDS011;34088;52.232;5.196;2023-03-22T17:20:13;8.18;;;6.82;;
48268;SDS011;34088;52.232;5.196;2023-03-22T17:22:39;7.85;;;6.43;;
48268;SDS011;34088;52.232;5.196;2023-03-22T17:25:05;8.80;;;6.60;;
48268;SDS011;34088;52.232;5.196;2023-03-22T17:27:31;8.65;;;6.95;;